sensor_id;sensor_type;location;lat;lon;timestamp;pressure;altitude;pressure_sealevel;temperature;humidity
62031;BME280;62035;52.094;5.112;2023-02-28T00:01:28;103310.94;;;3.54;100.00
62031;BME280;62035;52.094;5.112;2023-02-28T00:03:56;103312.16;;;3.41;100.00
62031;BME280;62035;52.094;5.112;2023-02-28T00:06:26;103313.97;;;3.39;100.00
62031;BME280;62035;52.094;5.112;2023-02-28T00:08:54;103308.59;;;3.43;100.00
62031;BME280;62035;52.094;5.112;2023-02-28T00:11:22;103306.53;;;3.54;100.00
62031;BME280;62035;52.094;5.112;2023-02-28T00:13:49;103306.00;;;3.42;100.00
62031;BME280;62035;52.094;5.112;2023-02-28T00:16:18;103311.31;;;3.69;100.00
62031;BME280;62035;52.094;5.112;2023-02-28T00:18:47;103287.81;;;3.32;100.00
62031;BME280;62035;52.094;5.112;2023-02-28T00:21:15;103307.66;;;3.46;100.00
62031;BME280;62035;52.094;5.112;2023-02-28T00:23:44;103308.91;;;3.62;100.00
62031;BME280;62035;52.094;5.112;2023-02-28T00:26:12;103320.91;;;3.72;100.00
62031;BME280;62035;52.094;5.112;2023-02-28T00:28:40;103316.56;;;3.71;100.00
62031;BME280;62035;52.094;5.112;2023-02-28T00:31:07;103315.38;;;3.81;100.00
62031;BME280;62035;52.094;5.112;2023-02-28T00:33:35;103315.69;;;3.71;100.00
62031;BME280;62035;52.094;5.112;2023-02-28T00:36:07;103303.94;;;3.82;100.00
62031;BME280;62035;52.094;5.112;2023-02-28T00:38:38;103314.53;;;3.81;100.00
62031;BME280;62035;52.094;5.112;2023-02-28T00:41:08;103311.31;;;3.69;100.00
62031;BME280;62035;52.094;5.112;2023-02-28T00:43:38;103312.78;;;3.80;100.00
62031;BME280;62035;52.094;5.112;2023-02-28T00:46:06;103300.41;;;3.83;100.00
62031;BME280;62035;52.094;5.112;2023-02-28T00:48:35;103312.13;;;4.01;100.00
62031;BME280;62035;52.094;5.112;2023-02-28T00:51:04;103306.72;;;4.06;100.00
62031;BME280;62035;52.094;5.112;2023-02-28T00:53:32;103294.91;;;3.91;100.00
62031;BME280;62035;52.094;5.112;2023-02-28T00:56:00;103299.03;;;3.99;100.00
62031;BME280;62035;52.094;5.112;2023-02-28T00:58:29;103297.00;;;4.08;100.00
62031;BME280;62035;52.094;5.112;2023-02-28T01:00:56;103299.28;;;4.20;100.00
62031;BME280;62035;52.094;5.112;2023-02-28T01:03:24;103297.31;;;4.26;100.00
62031;BME280;62035;52.094;5.112;2023-02-28T01:05:52;103293.94;;;4.21;100.00
62031;BME280;62035;52.094;5.112;2023-02-28T01:08:20;103300.72;;;4.00;100.00
62031;BME280;62035;52.094;5.112;2023-02-28T01:10:47;103302.53;;;4.28;100.00
62031;BME280;62035;52.094;5.112;2023-02-28T01:13:15;103302.50;;;4.00;100.00
62031;BME280;62035;52.094;5.112;2023-02-28T01:15:49;103292.50;;;4.11;100.00
62031;BME280;62035;52.094;5.112;2023-02-28T01:18:18;103295.81;;;4.18;100.00
62031;BME280;62035;52.094;5.112;2023-02-28T01:20:46;103292.03;;;3.98;100.00
62031;BME280;62035;52.094;5.112;2023-02-28T01:23:14;103294.28;;;4.11;100.00
62031;BME280;62035;52.094;5.112;2023-02-28T01:25:41;103293.03;;;4.22;100.00
62031;BME280;62035;52.094;5.112;2023-02-28T01:28:09;103299.63;;;4.08;100.00
62031;BME280;62035;52.094;5.112;2023-02-28T01:30:36;103307.81;;;4.28;100.00
62031;BME280;62035;52.094;5.112;2023-02-28T01:33:05;103302.09;;;4.14;100.00
62031;BME280;62035;52.094;5.112;2023-02-28T01:35:33;103300.03;;;4.23;100.00
62031;BME280;62035;52.094;5.112;2023-02-28T01:38:01;103290.22;;;4.28;100.00
62031;BME280;62035;52.094;5.112;2023-02-28T01:40:30;103287.72;;;4.24;100.00
62031;BME280;62035;52.094;5.112;2023-02-28T01:42:58;103294.91;;;4.19;100.00
62031;BME280;62035;52.094;5.112;2023-02-28T01:45:27;103291.28;;;4.23;100.00
62031;BME280;62035;52.094;5.112;2023-02-28T01:47:59;103290.25;;;4.27;100.00
62031;BME280;62035;52.094;5.112;2023-02-28T01:50:35;103285.19;;;4.21;100.00
62031;BME280;62035;52.094;5.112;2023-02-28T01:53:11;103292.72;;;4.33;100.00
62031;BME280;62035;52.094;5.112;2023-02-28T01:55:46;103288.09;;;4.12;100.00
62031;BME280;62035;52.094;5.112;2023-02-28T01:58:17;103291.28;;;4.23;100.00
62031;BME280;62035;52.094;5.112;2023-02-28T02:00:45;103287.16;;;4.14;100.00
62031;BME280;62035;52.094;5.112;2023-02-28T02:03:15;103282.34;;;4.27;100.00
62031;BME280;62035;52.094;5.112;2023-02-28T02:05:47;103274.63;;;4.21;100.00
62031;BME280;62035;52.094;5.112;2023-02-28T02:08:17;103279.09;;;4.45;100.00
62031;BME280;62035;52.094;5.112;2023-02-28T02:10:49;103271.34;;;4.41;100.00
62031;BME280;62035;52.094;5.112;2023-02-28T02:13:34;103272.78;;;4.51;100.00
62031;BME280;62035;52.094;5.112;2023-02-28T02:16:23;103261.06;;;4.59;100.00
62031;BME280;62035;52.094;5.112;2023-02-28T02:19:16;103254.38;;;4.49;100.00
62031;BME280;62035;52.094;5.112;2023-02-28T02:22:21;103245.06;;;4.39;100.00
62031;BME280;62035;52.094;5.112;2023-02-28T02:25:11;103254.84;;;4.35;100.00
62031;BME280;62035;52.094;5.112;2023-02-28T02:34:39;103257.66;;;4.56;100.00
62031;BME280;62035;52.094;5.112;2023-02-28T02:37:17;103263.41;;;4.68;100.00
62031;BME280;62035;52.094;5.112;2023-02-28T02:40:02;103269.38;;;4.47;100.00
62031;BME280;62035;52.094;5.112;2023-02-28T02:42:39;103269.47;;;4.44;100.00
62031;BME280;62035;52.094;5.112;2023-02-28T02:45:14;103266.38;;;4.58;100.00
62031;BME280;62035;52.094;5.112;2023-02-28T02:47:49;103269.75;;;4.63;100.00
62031;BME280;62035;52.094;5.112;2023-02-28T02:50:22;103264.63;;;4.58;100.00
62031;BME280;62035;52.094;5.112;2023-02-28T02:52:56;103260.19;;;4.59;100.00
62031;BME280;62035;52.094;5.112;2023-02-28T02:55:29;103264.72;;;4.55;100.00
62031;BME280;62035;52.094;5.112;2023-02-28T02:58:04;103262.88;;;4.57;100.00
62031;BME280;62035;52.094;5.112;2023-02-28T03:00:37;103268.38;;;4.78;100.00
62031;BME280;62035;52.094;5.112;2023-02-28T03:03:11;103259.03;;;4.67;100.00
62031;BME280;62035;52.094;5.112;2023-02-28T03:05:43;103254.38;;;4.76;100.00
62031;BME280;62035;52.094;5.112;2023-02-28T03:08:14;103263.25;;;4.73;100.00
62031;BME280;62035;52.094;5.112;2023-02-28T03:10:43;103271.56;;;4.61;100.00
62031;BME280;62035;52.094;5.112;2023-02-28T03:13:37;103268.56;;;4.72;100.00
62031;BME280;62035;52.094;5.112;2023-02-28T03:16:28;103265.59;;;4.81;100.00
62031;BME280;62035;52.094;5.112;2023-02-28T03:19:31;103274.97;;;4.64;100.00
62031;BME280;62035;52.094;5.112;2023-02-28T03:22:14;103270.09;;;4.52;100.00
62031;BME280;62035;52.094;5.112;2023-02-28T03:25:01;103276.84;;;4.61;100.00
62031;BME280;62035;52.094;5.112;2023-02-28T03:27:38;103265.44;;;4.60;100.00
62031;BME280;62035;52.094;5.112;2023-02-28T03:30:13;103271.06;;;4.76;100.00
62031;BME280;62035;52.094;5.112;2023-02-28T03:32:53;103264.09;;;4.74;100.00
62031;BME280;62035;52.094;5.112;2023-02-28T03:35:26;103260.22;;;4.84;100.00
62031;BME280;62035;52.094;5.112;2023-02-28T03:38:05;103267.75;;;4.69;100.00
62031;BME280;62035;52.094;5.112;2023-02-28T03:40:45;103276.19;;;4.54;100.00
62031;BME280;62035;52.094;5.112;2023-02-28T03:43:20;103268.78;;;4.65;100.00
62031;BME280;62035;52.094;5.112;2023-02-28T03:45:52;103266.78;;;4.72;100.00
62031;BME280;62035;52.094;5.112;2023-02-28T03:48:26;103270.19;;;4.76;100.00
62031;BME280;62035;52.094;5.112;2023-02-28T03:50:59;103272.53;;;4.58;100.00
62031;BME280;62035;52.094;5.112;2023-02-28T03:53:37;103280.84;;;4.73;100.00
62031;BME280;62035;52.094;5.112;2023-02-28T03:56:14;103273.75;;;4.75;100.00
62031;BME280;62035;52.094;5.112;2023-02-28T03:58:49;103271.41;;;4.65;100.00
62031;BME280;62035;52.094;5.112;2023-02-28T04:01:26;103275.31;;;4.54;100.00
62031;BME280;62035;52.094;5.112;2023-02-28T04:03:57;103280.06;;;4.43;100.00
62031;BME280;62035;52.094;5.112;2023-02-28T04:06:25;103282.59;;;4.46;100.00
62031;BME280;62035;52.094;5.112;2023-02-28T04:08:54;103279.97;;;4.46;100.00
62031;BME280;62035;52.094;5.112;2023-02-28T04:11:32;103282.31;;;4.55;100.00
62031;BME280;62035;52.094;5.112;2023-02-28T04:14:00;103282.25;;;4.56;100.00
62031;BME280;62035;52.094;5.112;2023-02-28T04:16:29;103290.41;;;4.22;100.00
62031;BME280;62035;52.094;5.112;2023-02-28T04:18:57;103289.97;;;4.62;100.00
62031;BME280;62035;52.094;5.112;2023-02-28T04:21:28;103290.56;;;4.44;100.00
62031;BME280;62035;52.094;5.112;2023-02-28T04:23:57;103291.75;;;4.35;100.00
62031;BME280;62035;52.094;5.112;2023-02-28T04:26:28;103292.72;;;4.33;100.00
62031;BME280;62035;52.094;5.112;2023-02-28T04:28:56;103289.59;;;4.47;100.00
62031;BME280;62035;52.094;5.112;2023-02-28T04:31:24;103285.72;;;4.58;100.00
62031;BME280;62035;52.094;5.112;2023-02-28T04:33:52;103279.09;;;4.45;100.00
62031;BME280;62035;52.094;5.112;2023-02-28T04:36:20;103287.28;;;4.64;100.00
62031;BME280;62035;52.094;5.112;2023-02-28T04:38:49;103287.34;;;4.62;100.00
62031;BME280;62035;52.094;5.112;2023-02-28T04:41:20;103288.44;;;4.55;100.00
62031;BME280;62035;52.094;5.112;2023-02-28T04:43:48;103290.88;;;4.35;100.00
62031;BME280;62035;52.094;5.112;2023-02-28T04:46:17;103296.34;;;4.29;100.00
62031;BME280;62035;52.094;5.112;2023-02-28T04:48:45;103304.66;;;4.43;100.00
62031;BME280;62035;52.094;5.112;2023-02-28T04:51:15;103299.47;;;4.40;100.00
62031;BME280;62035;52.094;5.112;2023-02-28T04:53:44;103297.97;;;4.33;100.00
62031;BME280;62035;52.094;5.112;2023-02-28T04:56:14;103291.69;;;4.37;100.00
62031;BME280;62035;52.094;5.112;2023-02-28T04:58:44;103285.50;;;4.64;100.00
62031;BME280;62035;52.094;5.112;2023-02-28T05:01:18;103282.66;;;4.44;100.00
62031;BME280;62035;52.094;5.112;2023-02-28T05:03:48;103291.28;;;3.95;100.00
62031;BME280;62035;52.094;5.112;2023-02-28T05:06:17;103290.97;;;4.32;100.00
62031;BME280;62035;52.094;5.112;2023-02-28T05:08:46;103273.88;;;4.17;100.00
62031;BME280;62035;52.094;5.112;2023-02-28T05:11:17;103279.97;;;4.19;100.00
62031;BME280;62035;52.094;5.112;2023-02-28T05:13:48;103276.47;;;4.19;100.00
62031;BME280;62035;52.094;5.112;2023-02-28T05:16:16;103272.78;;;4.24;100.00
62031;BME280;62035;52.094;5.112;2023-02-28T05:18:45;103275.56;;;4.20;100.00
62031;BME280;62035;52.094;5.112;2023-02-28T05:21:24;103253.16;;;4.05;100.00
62031;BME280;62035;52.094;5.112;2023-02-28T05:23:59;103279.91;;;4.21;100.00
62031;BME280;62035;52.094;5.112;2023-02-28T05:26:28;103274.25;;;4.33;100.00
62031;BME280;62035;52.094;5.112;2023-02-28T05:28:58;103279.56;;;4.31;100.00
62031;BME280;62035;52.094;5.112;2023-02-28T05:31:25;103282.25;;;4.30;100.00
62031;BME280;62035;52.094;5.112;2023-02-28T05:33:53;103281.03;;;4.40;100.00
62031;BME280;62035;52.094;5.112;2023-02-28T05:36:21;103281.81;;;4.16;100.00
62031;BME280;62035;52.094;5.112;2023-02-28T05:38:49;103285.81;;;4.29;100.00
62031;BME280;62035;52.094;5.112;2023-02-28T05:41:19;103278.81;;;4.28;100.00
62031;BME280;62035;52.094;5.112;2023-02-28T05:43:47;103276.84;;;4.07;100.00
62031;BME280;62035;52.094;5.112;2023-02-28T05:46:17;103280.91;;;3.89;100.00
62031;BME280;62035;52.094;5.112;2023-02-28T05:48:46;103278.28;;;3.89;100.00
62031;BME280;62035;52.094;5.112;2023-02-28T05:51:15;103277.97;;;3.70;100.00
62031;BME280;62035;52.094;5.112;2023-02-28T05:53:44;103292.72;;;3.76;100.00
62031;BME280;62035;52.094;5.112;2023-02-28T05:56:12;103287.81;;;3.32;100.00
62031;BME280;62035;52.094;5.112;2023-02-28T05:58:39;103296.75;;;3.27;100.00
62031;BME280;62035;52.094;5.112;2023-02-28T06:01:26;103297.97;;;3.46;100.00
62031;BME280;62035;52.094;5.112;2023-02-28T06:04:00;103303.75;;;3.28;100.00
62031;BME280;62035;52.094;5.112;2023-02-28T06:06:29;103303.34;;;3.11;100.00
62031;BME280;62035;52.094;5.112;2023-02-28T06:08:57;103306.78;;;3.14;100.00
62031;BME280;62035;52.094;5.112;2023-02-28T06:11:24;103318.34;;;3.07;100.00
62031;BME280;62035;52.094;5.112;2023-02-28T06:13:53;103316.44;;;2.80;100.00
62031;BME280;62035;52.094;5.112;2023-02-28T06:16:24;103319.97;;;2.79;100.00
62031;BME280;62035;52.094;5.112;2023-02-28T06:18:52;103319.00;;;2.81;100.00
62031;BME280;62035;52.094;5.112;2023-02-28T06:21:22;103320.88;;;2.78;100.00
62031;BME280;62035;52.094;5.112;2023-02-28T06:23:51;103326.91;;;2.81;100.00
62031;BME280;62035;52.094;5.112;2023-02-28T06:26:19;103332.63;;;2.63;100.00
62031;BME280;62035;52.094;5.112;2023-02-28T06:28:47;103336.31;;;2.56;100.00
62031;BME280;62035;52.094;5.112;2023-02-28T06:31:16;103333.66;;;2.56;100.00
62031;BME280;62035;52.094;5.112;2023-02-28T06:33:47;103340.94;;;2.45;100.00
62031;BME280;62035;52.094;5.112;2023-02-28T06:36:16;103336.00;;;2.32;100.00
62031;BME280;62035;52.094;5.112;2023-02-28T06:38:44;103337.44;;;2.44;100.00
62031;BME280;62035;52.094;5.112;2023-02-28T06:41:17;103338.41;;;2.40;100.00
62031;BME280;62035;52.094;5.112;2023-02-28T06:43:45;103339.47;;;2.33;100.00
62031;BME280;62035;52.094;5.112;2023-02-28T06:46:13;103333.47;;;2.28;100.00
62031;BME280;62035;52.094;5.112;2023-02-28T06:48:43;103342.72;;;2.43;100.00
62031;BME280;62035;52.094;5.112;2023-02-28T06:51:14;103344.00;;;2.63;100.00
62031;BME280;62035;52.094;5.112;2023-02-28T06:53:43;103348.44;;;2.61;100.00
62031;BME280;62035;52.094;5.112;2023-02-28T06:56:13;103351.06;;;2.61;100.00
62031;BME280;62035;52.094;5.112;2023-02-28T06:58:46;103358.00;;;2.64;100.00
62031;BME280;62035;52.094;5.112;2023-02-28T07:01:14;103347.91;;;2.83;100.00
62031;BME280;62035;52.094;5.112;2023-02-28T07:03:42;103353.94;;;2.86;100.00
62031;BME280;62035;52.094;5.112;2023-02-28T07:06:11;103347.91;;;3.17;100.00
62031;BME280;62035;52.094;5.112;2023-02-28T07:08:39;103339.41;;;3.07;100.00
62031;BME280;62035;52.094;5.112;2023-02-28T07:11:07;103328.25;;;2.97;100.00
62031;BME280;62035;52.094;5.112;2023-02-28T07:13:35;103339.56;;;3.01;100.00
62031;BME280;62035;52.094;5.112;2023-02-28T07:16:04;103339.94;;;2.86;100.00
62031;BME280;62035;52.094;5.112;2023-02-28T07:18:35;103336.50;;;2.82;100.00
62031;BME280;62035;52.094;5.112;2023-02-28T07:21:03;103353.25;;;3.14;100.00
62031;BME280;62035;52.094;5.112;2023-02-28T07:23:34;103350.03;;;3.03;100.00
62031;BME280;62035;52.094;5.112;2023-02-28T07:26:04;103357.44;;;3.21;100.00
62031;BME280;62035;52.094;5.112;2023-02-28T07:28:32;103350.91;;;3.35;100.00
62031;BME280;62035;52.094;5.112;2023-02-28T07:31:03;103345.31;;;3.48;100.00
62031;BME280;62035;52.094;5.112;2023-02-28T07:33:32;103336.31;;;3.56;100.00
62031;BME280;62035;52.094;5.112;2023-02-28T07:36:01;103340.25;;;3.40;100.00
62031;BME280;62035;52.094;5.112;2023-02-28T07:38:29;103349.22;;;3.64;100.00
62031;BME280;62035;52.094;5.112;2023-02-28T07:40:58;103348.41;;;3.62;100.00
62031;BME280;62035;52.094;5.112;2023-02-28T07:43:25;103344.78;;;3.66;100.00
62031;BME280;62035;52.094;5.112;2023-02-28T07:45:53;103343.09;;;3.63;100.00
62031;BME280;62035;52.094;5.112;2023-02-28T07:48:20;103344.34;;;3.81;100.00
62031;BME280;62035;52.094;5.112;2023-02-28T07:50:54;103346.81;;;3.87;100.00
62031;BME280;62035;52.094;5.112;2023-02-28T07:53:22;103344.94;;;3.60;100.00
62031;BME280;62035;52.094;5.112;2023-02-28T07:55:50;103353.38;;;3.73;100.00
62031;BME280;62035;52.094;5.112;2023-02-28T07:58:19;103355.47;;;3.60;100.00
62031;BME280;62035;52.094;5.112;2023-02-28T08:00:46;103357.31;;;3.89;100.00
62031;BME280;62035;52.094;5.112;2023-02-28T08:03:17;103354.59;;;3.92;100.00
62031;BME280;62035;52.094;5.112;2023-02-28T08:05:45;103351.25;;;3.85;100.00
62031;BME280;62035;52.094;5.112;2023-02-28T08:08:14;103353.56;;;3.97;100.00
62031;BME280;62035;52.094;5.112;2023-02-28T08:10:42;103355.41;;;3.94;100.00
62031;BME280;62035;52.094;5.112;2023-02-28T08:13:10;103354.16;;;4.06;100.00
62031;BME280;62035;52.094;5.112;2023-02-28T08:15:40;103354.47;;;3.96;100.00
62031;BME280;62035;52.094;5.112;2023-02-28T08:18:08;103348.97;;;4.02;100.00
62031;BME280;62035;52.094;5.112;2023-02-28T08:20:35;103355.72;;;4.13;100.00
62031;BME280;62035;52.094;5.112;2023-02-28T08:23:03;103365.66;;;4.03;100.00
62031;BME280;62035;52.094;5.112;2023-02-28T08:25:30;103362.38;;;3.96;100.00
62031;BME280;62035;52.094;5.112;2023-02-28T08:27:58;103374.06;;;4.16;100.00
62031;BME280;62035;52.094;5.112;2023-02-28T08:30:26;103360.97;;;4.13;100.00
62031;BME280;62035;52.094;5.112;2023-02-28T08:32:55;103360.88;;;4.16;100.00
62031;BME280;62035;52.094;5.112;2023-02-28T08:35:22;103359.34;;;4.38;100.00
62031;BME280;62035;52.094;5.112;2023-02-28T08:37:50;103362.63;;;4.73;100.00
62031;BME280;62035;52.094;5.112;2023-02-28T08:40:18;103363.06;;;4.31;100.00
62031;BME280;62035;52.094;5.112;2023-02-28T08:42:46;103359.78;;;4.51;100.00
62031;BME280;62035;52.094;5.112;2023-02-28T08:45:14;103350.63;;;4.62;100.00
62031;BME280;62035;52.094;5.112;2023-02-28T08:47:42;103359.56;;;4.85;100.00
62031;BME280;62035;52.094;5.112;2023-02-28T08:50:11;103362.25;;;4.83;100.00
62031;BME280;62035;52.094;5.112;2023-02-28T08:52:42;103353.22;;;4.90;100.00
62031;BME280;62035;52.094;5.112;2023-02-28T08:55:09;103359.31;;;4.92;100.00
62031;BME280;62035;52.094;5.112;2023-02-28T08:57:37;103359.75;;;5.05;100.00
62031;BME280;62035;52.094;5.112;2023-02-28T09:00:06;103356.50;;;4.97;100.00
62031;BME280;62035;52.094;5.112;2023-02-28T09:02:39;103345.03;;;4.98;100.00
62031;BME280;62035;52.094;5.112;2023-02-28T09:05:09;103342.81;;;5.12;100.00
62031;BME280;62035;52.094;5.112;2023-02-28T09:07:38;103340.16;;;5.12;100.00
62031;BME280;62035;52.094;5.112;2023-02-28T09:10:07;103337.28;;;4.93;100.00
62031;BME280;62035;52.094;5.112;2023-02-28T09:12:35;103333.00;;;5.16;100.00
62031;BME280;62035;52.094;5.112;2023-02-28T09:15:04;103337.88;;;5.01;100.00
62031;BME280;62035;52.094;5.112;2023-02-28T09:17:32;103339.97;;;4.92;100.00
62031;BME280;62035;52.094;5.112;2023-02-28T09:20:00;103338.97;;;4.96;100.00
62031;BME280;62035;52.094;5.112;2023-02-28T09:22:29;103335.41;;;5.22;100.00
62031;BME280;62035;52.094;5.112;2023-02-28T09:24:56;103315.41;;;5.16;100.00
62031;BME280;62035;52.094;5.112;2023-02-28T09:27:24;103325.66;;;4.99;100.00
62031;BME280;62035;52.094;5.112;2023-02-28T09:29:52;103319.06;;;5.12;100.00
62031;BME280;62035;52.094;5.112;2023-02-28T09:32:19;103332.66;;;5.00;100.00
62031;BME280;62035;52.094;5.112;2023-02-28T09:34:47;103330.06;;;4.98;100.00
62031;BME280;62035;52.094;5.112;2023-02-28T09:37:14;103340.63;;;4.98;100.00
62031;BME280;62035;52.094;5.112;2023-02-28T09:39:43;103329.06;;;5.27;100.00
62031;BME280;62035;52.094;5.112;2023-02-28T09:42:20;103325.00;;;5.19;100.00
62031;BME280;62035;52.094;5.112;2023-02-28T09:44:51;103334.06;;;5.35;100.00
62031;BME280;62035;52.094;5.112;2023-02-28T09:47:27;103334.94;;;5.11;100.00
62031;BME280;62035;52.094;5.112;2023-02-28T09:50:14;103329.97;;;5.26;100.00
62031;BME280;62035;52.094;5.112;2023-02-28T09:52:50;103327.91;;;5.59;100.00
62031;BME280;62035;52.094;5.112;2023-02-28T09:55:25;103325.56;;;5.52;100.00
62031;BME280;62035;52.094;5.112;2023-02-28T09:57:57;103325.72;;;5.70;100.00
62031;BME280;62035;52.094;5.112;2023-02-28T10:00:30;103323.38;;;5.86;100.00
62031;BME280;62035;52.094;5.112;2023-02-28T10:03:22;103328.88;;;6.03;100.00
62031;BME280;62035;52.094;5.112;2023-02-28T10:06:00;103333.41;;;6.45;100.00
62031;BME280;62035;52.094;5.112;2023-02-28T10:08:38;103324.50;;;6.48;100.00
62031;BME280;62035;52.094;5.112;2023-02-28T10:11:15;103321.53;;;6.55;100.00
62031;BME280;62035;52.094;5.112;2023-02-28T10:13:52;103310.91;;;6.57;100.00
62031;BME280;62035;52.094;5.112;2023-02-28T10:16:31;103319.25;;;6.68;97.78
62031;BME280;62035;52.094;5.112;2023-02-28T10:19:05;103318.19;;;6.30;86.89
62031;BME280;62035;52.094;5.112;2023-02-28T10:21:42;103313.69;;;6.32;85.78
62031;BME280;62035;52.094;5.112;2023-02-28T10:24:20;103307.88;;;6.44;79.14
62031;BME280;62035;52.094;5.112;2023-02-28T10:27:02;103309.97;;;6.80;78.90
62031;BME280;62035;52.094;5.112;2023-02-28T10:29:43;103307.56;;;6.94;73.64
62031;BME280;62035;52.094;5.112;2023-02-28T10:32:15;103303.44;;;7.48;78.98
62031;BME280;62035;52.094;5.112;2023-02-28T10:34:51;103298.56;;;7.18;73.74
62031;BME280;62035;52.094;5.112;2023-02-28T10:37:22;103295.47;;;7.48;75.55
62031;BME280;62035;52.094;5.112;2023-02-28T10:39:50;103299.78;;;7.11;70.09
62031;BME280;62035;52.094;5.112;2023-02-28T10:42:26;103302.50;;;7.28;70.38
62031;BME280;62035;52.094;5.112;2023-02-28T10:45:10;103298.34;;;7.43;71.35
62031;BME280;62035;52.094;5.112;2023-02-28T10:47:49;103289.66;;;7.40;63.83
62031;BME280;62035;52.094;5.112;2023-02-28T10:50:28;103295.69;;;7.62;65.96
62031;BME280;62035;52.094;5.112;2023-02-28T10:53:14;103292.72;;;7.88;64.83
62031;BME280;62035;52.094;5.112;2023-02-28T10:55:59;103287.47;;;7.49;63.04
62031;BME280;62035;52.094;5.112;2023-02-28T10:58:31;103279.44;;;7.69;63.72
62031;BME280;62035;52.094;5.112;2023-02-28T11:01:15;103283.97;;;7.49;62.79
62031;BME280;62035;52.094;5.112;2023-02-28T11:03:44;103284.63;;;7.33;63.05
62031;BME280;62035;52.094;5.112;2023-02-28T11:06:16;103278.50;;;7.70;66.84
62031;BME280;62035;52.094;5.112;2023-02-28T11:08:48;103264.16;;;7.37;64.35
62031;BME280;62035;52.094;5.112;2023-02-28T11:11:19;103274.00;;;7.54;64.01
62031;BME280;62035;52.094;5.112;2023-02-28T11:13:53;103272.69;;;7.44;64.21
62031;BME280;62035;52.094;5.112;2023-02-28T11:16:32;103276.22;;;7.24;63.28
62031;BME280;62035;52.094;5.112;2023-02-28T11:19:02;103265.31;;;7.31;62.43
62031;BME280;62035;52.094;5.112;2023-02-28T11:21:34;103261.84;;;7.11;60.88
62031;BME280;62035;52.094;5.112;2023-02-28T11:24:23;103262.38;;;6.98;64.93
62031;BME280;62035;52.094;5.112;2023-02-28T11:26:54;103253.69;;;7.15;64.96
62031;BME280;62035;52.094;5.112;2023-02-28T11:29:26;103252.91;;;6.93;63.04
62031;BME280;62035;52.094;5.112;2023-02-28T11:32:10;103252.25;;;7.08;64.24
62031;BME280;62035;52.094;5.112;2023-02-28T11:34:41;103248.66;;;7.09;64.18
62031;BME280;62035;52.094;5.112;2023-02-28T11:37:15;103245.63;;;7.18;65.67
62031;BME280;62035;52.094;5.112;2023-02-28T11:39:46;103239.72;;;7.12;63.44
62031;BME280;62035;52.094;5.112;2023-02-28T11:42:27;103237.75;;;6.96;60.59
62031;BME280;62035;52.094;5.112;2023-02-28T11:45:21;103245.22;;;6.87;61.66
62031;BME280;62035;52.094;5.112;2023-02-28T11:48:01;103238.94;;;6.89;62.47
62031;BME280;62035;52.094;5.112;2023-02-28T11:50:49;103237.41;;;7.04;62.50
62031;BME280;62035;52.094;5.112;2023-02-28T11:53:40;103240.72;;;7.09;62.61
62031;BME280;62035;52.094;5.112;2023-02-28T11:56:23;103232.84;;;7.08;62.43
62031;BME280;62035;52.094;5.112;2023-02-28T11:59:11;103227.22;;;7.15;59.78
62031;BME280;62035;52.094;5.112;2023-02-28T12:02:06;103241.94;;;7.21;60.72
62031;BME280;62035;52.094;5.112;2023-02-28T12:04:52;103236.56;;;7.22;59.83
62031;BME280;62035;52.094;5.112;2023-02-28T12:07:36;103236.34;;;7.08;58.47
62031;BME280;62035;52.094;5.112;2023-02-28T12:10:21;103228.00;;;7.17;57.67
62031;BME280;62035;52.094;5.112;2023-02-28T12:13:03;103218.09;;;7.21;58.84
62031;BME280;62035;52.094;5.112;2023-02-28T12:15:57;103227.47;;;7.09;57.62
62031;BME280;62035;52.094;5.112;2023-02-28T12:19:04;103221.13;;;7.13;59.50
62031;BME280;62035;52.094;5.112;2023-02-28T12:22:03;103211.88;;;7.03;57.87
62031;BME280;62035;52.094;5.112;2023-02-28T12:24:52;103214.47;;;7.23;57.92
62031;BME280;62035;52.094;5.112;2023-02-28T12:27:32;103214.41;;;7.44;60.08
62031;BME280;62035;52.094;5.112;2023-02-28T12:30:08;103212.19;;;7.34;57.26
62031;BME280;62035;52.094;5.112;2023-02-28T12:32:45;103207.63;;;7.19;56.52
62031;BME280;62035;52.094;5.112;2023-02-28T12:35:21;103217.63;;;7.31;56.29
62031;BME280;62035;52.094;5.112;2023-02-28T12:37:56;103211.75;;;7.25;54.65
62031;BME280;62035;52.094;5.112;2023-02-28T12:40:38;103201.53;;;7.17;56.13
62031;BME280;62035;52.094;5.112;2023-02-28T12:43:13;103195.72;;;7.47;56.38
62031;BME280;62035;52.094;5.112;2023-02-28T12:45:46;103193.28;;;7.61;56.79
62031;BME280;62035;52.094;5.112;2023-02-28T12:48:21;103196.03;;;7.59;55.78
62031;BME280;62035;52.094;5.112;2023-02-28T12:50:56;103203.59;;;7.67;54.84
62031;BME280;62035;52.094;5.112;2023-02-28T12:53:29;103201.63;;;7.53;54.64
62031;BME280;62035;52.094;5.112;2023-02-28T12:56:11;103202.16;;;7.79;54.90
62031;BME280;62035;52.094;5.112;2023-02-28T12:58:45;103192.22;;;7.46;54.89
62031;BME280;62035;52.094;5.112;2023-02-28T13:04:57;103200.59;;;7.75;54.22
62031;BME280;62035;52.094;5.112;2023-02-28T13:07:59;103188.75;;;7.82;53.88
62031;BME280;62035;52.094;5.112;2023-02-28T13:10:43;103183.66;;;7.77;53.53
62031;BME280;62035;52.094;5.112;2023-02-28T13:13:15;103177.34;;;7.98;54.74
62031;BME280;62035;52.094;5.112;2023-02-28T13:16:04;103174.69;;;7.98;53.69
62031;BME280;62035;52.094;5.112;2023-02-28T13:18:35;103179.66;;;7.87;52.14
62031;BME280;62035;52.094;5.112;2023-02-28T13:21:07;103179.69;;;7.50;53.03
62031;BME280;62035;52.094;5.112;2023-02-28T13:24:02;103173.28;;;7.73;54.03
62031;BME280;62035;52.094;5.112;2023-02-28T13:29:58;103164.19;;;7.78;52.82
62031;BME280;62035;52.094;5.112;2023-02-28T13:32:30;103164.19;;;7.78;52.97
62031;BME280;62035;52.094;5.112;2023-02-28T13:35:14;103156.81;;;8.02;52.68
62031;BME280;62035;52.094;5.112;2023-02-28T13:38:15;103157.47;;;7.71;50.56